Time;durP1;ratioP1;P1;durP2;ratioP2;P2;SDS_P1;SDS_P2;PMS_P1;PMS_P2;Temp;Humidity;BMP_temperature;BMP_pressure;BME280_temperature;BME280_humidity;BME280_pressure;Samples;Min_cycle;Max_cycle;Signal;HPM_P1;HPM_P2
2023/12/25 00:01:35;;;;;;;0.00;0.00;;;26.90;51.10;;;;;;5093578;28;20205;-46
2023/12/25 00:04:09;;;;;;;0.00;0.00;;;26.90;51.20;;;;;;5093446;28;20197;-45
2023/12/25 00:06:42;;;;;;;0.00;0.00;;;26.90;51.20;;;;;;5093696;28;20684;-46
2023/12/25 00:09:12;;;;;;;0.00;0.00;;;26.90;51.20;;;;;;5093837;28;20646;-44
2023/12/25 00:11:43;;;;;;;0.00;0.00;;;26.90;51.30;;;;;;5093835;28;20563;-44
2023/12/25 00:14:14;;;;;;;0.00;0.00;;;26.90;51.20;;;;;;5093550;28;20194;-44
2023/12/25 00:16:45;;;;;;;0.00;0.00;;;26.90;51.30;;;;;;5093079;28;20321;-46
2023/12/25 00:19:16;;;;;;;0.00;0.00;;;26.90;51.20;;;;;;5092825;28;20201;-46
2023/12/25 00:21:48;;;;;;;0.00;0.00;;;26.90;51.30;;;;;;5092967;28;20194;-46
2023/12/25 00:24:19;;;;;;;0.00;0.00;;;26.90;51.30;;;;;;5092868;28;20194;-45
2023/12/25 00:26:50;;;;;;;0.00;0.00;;;26.90;51.30;;;;;;5092277;28;20222;-43
2023/12/25 00:29:20;;;;;;;0.00;0.00;;;26.90;51.30;;;;;;5093247;28;20202;-43
2023/12/25 00:31:51;;;;;;;0.00;0.00;;;26.90;51.30;;;;;;5093167;28;20198;-44
2023/12/25 00:34:22;;;;;;;0.00;0.00;;;26.90;51.30;;;;;;5092471;28;20232;-46
2023/12/25 00:36:54;;;;;;;0.00;0.00;;;26.90;51.30;;;;;;5074796;28;20205;-42
2023/12/25 00:39:25;;;;;;;0.00;0.00;;;26.90;51.30;;;;;;5093331;28;20677;-46
2023/12/25 00:41:56;;;;;;;0.00;0.00;;;26.90;51.30;;;;;;5092565;28;20194;-45
2023/12/25 00:44:27;;;;;;;0.00;0.00;;;26.90;51.30;;;;;;5091801;28;20194;-46
2023/12/25 00:46:57;;;;;;;0.00;0.00;;;26.90;51.30;;;;;;5092687;28;20226;-45
2023/12/25 00:49:28;;;;;;;0.00;0.00;;;26.90;51.30;;;;;;5092839;28;20664;-45
2023/12/25 00:52:00;;;;;;;0.00;0.00;;;26.90;51.30;;;;;;5092596;28;20206;-45
2023/12/25 00:54:31;;;;;;;0.00;0.00;;;26.90;51.40;;;;;;5092498;28;20198;-45
2023/12/25 00:57:02;;;;;;;0.00;0.00;;;26.90;51.40;;;;;;5092426;28;20198;-46
2023/12/25 00:59:33;;;;;;;0.00;0.00;;;26.90;51.40;;;;;;5092575;28;20201;-45
2023/12/25 01:02:03;;;;;;;0.00;0.00;;;26.90;51.50;;;;;;5092046;28;20569;-45
2023/12/25 01:04:34;;;;;;;0.00;0.00;;;26.90;51.50;;;;;;5091870;28;20214;-45
2023/12/25 01:07:07;;;;;;;0.00;0.00;;;26.90;51.50;;;;;;5091973;28;20316;-45
2023/12/25 01:09:37;;;;;;;0.00;0.00;;;27.00;51.60;;;;;;5092009;28;20198;-43
2023/12/25 01:12:08;;;;;;;0.00;0.00;;;26.90;51.50;;;;;;5092615;28;20665;-44
2023/12/25 01:14:42;;;;;;;0.00;0.00;;;27.00;51.50;;;;;;5092480;28;20216;-43
2023/12/25 01:17:13;;;;;;;0.00;0.00;;;26.90;51.50;;;;;;5092502;28;20206;-46
2023/12/25 01:19:44;;;;;;;0.00;0.00;;;27.00;51.60;;;;;;5092294;28;20201;-46
2023/12/25 01:22:16;;;;;;;0.00;0.00;;;27.00;51.60;;;;;;5092491;28;20641;-46
2023/12/25 01:24:47;;;;;;;0.00;0.00;;;26.90;51.50;;;;;;5092263;28;20582;-44
2023/12/25 01:27:18;;;;;;;0.00;0.00;;;27.00;51.60;;;;;;5092202;28;20218;-43
2023/12/25 01:29:48;;;;;;;0.00;0.00;;;27.00;51.60;;;;;;5092472;28;20546;-45
2023/12/25 01:32:19;;;;;;;0.00;0.00;;;27.00;51.60;;;;;;5092096;28;20662;-45
2023/12/25 01:34:50;;;;;;;0.00;0.00;;;27.00;51.60;;;;;;5091424;28;20226;-43
2023/12/25 01:37:23;;;;;;;0.00;0.00;;;27.00;51.60;;;;;;5089128;28;20205;-45
2023/12/25 01:39:54;;;;;;;0.00;0.00;;;27.00;51.60;;;;;;5092621;28;20347;-44
2023/12/25 01:42:24;;;;;;;0.00;0.00;;;27.00;51.70;;;;;;5092180;28;20194;-43
2023/12/25 01:44:55;;;;;;;0.00;0.00;;;27.00;51.60;;;;;;5092126;28;20225;-42
2023/12/25 01:47:26;;;;;;;0.00;0.00;;;27.00;51.70;;;;;;5092280;28;20222;-42
2023/12/25 01:50:00;;;;;;;0.00;0.00;;;27.00;51.70;;;;;;5091766;28;20194;-42
2023/12/25 01:52:33;;;;;;;0.00;0.00;;;27.00;51.70;;;;;;5091736;28;20237;-42
2023/12/25 01:55:04;;;;;;;0.00;0.00;;;27.00;51.70;;;;;;5091421;28;20221;-44
2023/12/25 01:57:35;;;;;;;0.00;0.00;;;27.00;51.70;;;;;;5091524;28;20202;-46
2023/12/25 02:00:06;;;;;;;0.00;0.00;;;27.10;51.70;;;;;;5091359;28;20194;-42
2023/12/25 02:02:37;;;;;;;0.00;0.00;;;27.10;51.70;;;;;;5091899;28;20223;-45
2023/12/25 02:05:08;;;;;;;0.00;0.00;;;27.10;51.80;;;;;;5091669;28;20561;-45
2023/12/25 02:07:41;;;;;;;0.00;0.00;;;27.10;51.70;;;;;;5091463;28;20308;-47
2023/12/25 02:10:12;;;;;;;0.00;0.00;;;27.10;51.80;;;;;;5091657;28;20537;-45
2023/12/25 02:12:43;;;;;;;0.00;0.00;;;27.10;51.70;;;;;;5091462;28;20194;-47
2023/12/25 02:15:14;;;;;;;0.00;0.00;;;27.10;51.70;;;;;;5091372;28;20229;-43
2023/12/25 02:17:45;;;;;;;0.00;0.00;;;27.10;51.80;;;;;;5091375;28;20202;-46
2023/12/25 02:20:17;;;;;;;0.00;0.00;;;27.10;51.80;;;;;;5091245;28;20198;-46
2023/12/25 02:22:49;;;;;;;0.00;0.00;;;27.20;51.90;;;;;;5091422;28;20232;-46
2023/12/25 02:25:32;;;;;;;0.00;0.00;;;27.20;52.50;;;;;;5091634;28;20209;-42
2023/12/25 02:28:06;;;;;;;0.00;0.00;;;27.10;51.80;;;;;;5091216;28;20218;-43
2023/12/25 02:30:36;;;;;;;0.00;0.00;;;27.20;51.80;;;;;;5090988;28;20197;-44
2023/12/25 02:33:07;;;;;;;0.00;0.00;;;27.20;52.50;;;;;;5091180;28;20198;-44
2023/12/25 02:35:38;;;;;;;0.00;0.00;;;27.20;51.90;;;;;;5090972;28;20580;-44
2023/12/25 02:38:09;;;;;;;0.00;0.00;;;27.20;51.90;;;;;;5090966;28;20198;-44
2023/12/25 02:40:41;;;;;;;0.00;0.00;;;27.20;51.90;;;;;;5091046;28;20201;-42
2023/12/25 02:43:13;;;;;;;0.00;0.00;;;27.20;52.00;;;;;;5091563;28;20607;-45
2023/12/25 02:45:44;;;;;;;0.00;0.00;;;27.20;51.90;;;;;;5091334;28;20243;-43
2023/12/25 02:48:15;;;;;;;0.00;0.00;;;27.20;51.90;;;;;;5091003;28;20222;-45
2023/12/25 02:50:45;;;;;;;0.00;0.00;;;27.20;52.00;;;;;;5093342;28;20194;-43
2023/12/25 02:53:16;;;;;;;0.00;0.00;;;27.20;52.00;;;;;;5094921;28;20190;-43
2023/12/25 02:55:47;;;;;;;0.00;0.00;;;27.20;51.90;;;;;;5095161;28;20214;-42
2023/12/25 02:58:19;;;;;;;0.00;0.00;;;27.20;52.00;;;;;;5095496;28;20558;-44
2023/12/25 03:00:50;;;;;;;0.00;0.00;;;27.20;52.60;;;;;;5095376;28;20199;-45
2023/12/25 03:03:21;;;;;;;0.00;0.00;;;27.20;51.90;;;;;;5094906;28;20198;-44
2023/12/25 03:05:51;;;;;;;0.00;0.00;;;27.20;52.00;;;;;;5094504;28;20573;-45
2023/12/25 03:08:22;;;;;;;0.00;0.00;;;27.20;51.90;;;;;;5094551;28;20198;-43
2023/12/25 03:10:53;;;;;;;0.00;0.00;;;27.20;51.90;;;;;;5094477;28;20207;-43
2023/12/25 03:13:25;;;;;;;0.00;0.00;;;27.20;51.90;;;;;;5094934;28;20197;-44
2023/12/25 03:15:56;;;;;;;0.00;0.00;;;27.10;51.80;;;;;;5094629;28;20214;-43
2023/12/25 03:18:27;;;;;;;0.00;0.00;;;27.20;51.90;;;;;;5094511;28;20659;-42
2023/12/25 03:20:58;;;;;;;0.00;0.00;;;27.20;51.90;;;;;;5094326;28;20198;-43
2023/12/25 03:23:29;;;;;;;0.00;0.00;;;27.20;51.90;;;;;;5094596;28;20190;-43
2023/12/25 03:26:00;;;;;;;0.00;0.00;;;27.20;51.90;;;;;;5094463;28;20218;-45
2023/12/25 03:28:32;;;;;;;0.00;0.00;;;27.10;51.90;;;;;;5094311;28;20202;-43
2023/12/25 03:31:03;;;;;;;0.00;0.00;;;27.20;52.00;;;;;;5094405;28;20209;-43
2023/12/25 03:33:34;;;;;;;0.00;0.00;;;27.20;52.00;;;;;;5094520;28;20568;-43
2023/12/25 03:36:05;;;;;;;0.00;0.00;;;27.20;52.00;;;;;;5094355;28;20229;-46
2023/12/25 03:38:36;;;;;;;0.00;0.00;;;27.20;52.00;;;;;;5094090;28;20273;-42
2023/12/25 03:41:06;;;;;;;0.00;0.00;;;27.20;52.00;;;;;;5074158;28;20213;-46
2023/12/25 03:43:40;;;;;;;0.00;0.00;;;27.20;52.00;;;;;;5073748;28;20202;-43
2023/12/25 03:46:11;;;;;;;0.00;0.00;;;27.20;51.90;;;;;;5073561;28;20309;-42
2023/12/25 03:48:41;;;;;;;0.00;0.00;;;27.20;52.00;;;;;;5073796;28;20199;-44
2023/12/25 03:51:12;;;;;;;0.00;0.00;;;27.20;51.90;;;;;;5073547;28;20199;-43
2023/12/25 03:53:43;;;;;;;0.00;0.00;;;27.20;51.90;;;;;;5073791;28;20312;-43
2023/12/25 03:56:17;;;;;;;0.00;0.00;;;27.20;51.90;;;;;;5073754;28;20225;-44
2023/12/25 03:58:50;;;;;;;0.00;0.00;;;27.20;51.90;;;;;;5073505;28;20202;-44
2023/12/25 04:01:21;;;;;;;0.00;0.00;;;27.20;51.90;;;;;;5073520;28;20201;-43
2023/12/25 04:03:52;;;;;;;0.00;0.00;;;27.30;51.90;;;;;;5077355;28;20404;-44
2023/12/25 04:06:29;;;;;;;0.00;0.00;;;27.20;51.80;;;;;;5093368;28;20313;-42
2023/12/25 04:08:59;;;;;;;0.00;0.00;;;27.30;51.80;;;;;;5093619;28;20202;-42
2023/12/25 04:11:30;;;;;;;0.00;0.00;;;27.30;51.80;;;;;;5093549;28;20235;-44
2023/12/25 04:14:03;;;;;;;0.00;0.00;;;27.30;51.70;;;;;;5093513;28;20559;-43
2023/12/25 04:16:33;;;;;;;0.00;0.00;;;27.20;51.70;;;;;;5093443;28;20218;-43
2023/12/25 04:19:04;;;;;;;0.00;0.00;;;27.30;51.70;;;;;;5093207;28;20206;-43
2023/12/25 04:21:35;;;;;;;0.00;0.00;;;27.30;51.60;;;;;;5093787;28;20209;-43
2023/12/25 04:24:07;;;;;;;0.00;0.00;;;27.30;51.50;;;;;;5093405;28;20197;-43
2023/12/25 04:26:38;;;;;;;0.00;0.00;;;27.20;51.50;;;;;;5093216;28;20210;-43
2023/12/25 04:29:11;;;;;;;0.00;0.00;;;27.20;51.40;;;;;;5093341;28;20205;-44
2023/12/25 04:31:42;;;;;;;0.00;0.00;;;27.20;51.30;;;;;;5093044;28;20194;-44
2023/12/25 04:34:13;;;;;;;0.00;0.00;;;27.20;51.30;;;;;;5092341;28;20273;-43
2023/12/25 04:36:43;;;;;;;0.00;0.00;;;27.20;51.20;;;;;;5093286;28;20198;-43
2023/12/25 04:39:14;;;;;;;0.00;0.00;;;27.20;51.20;;;;;;5093193;28;20190;-44
2023/12/25 04:41:45;;;;;;;0.00;0.00;;;27.20;51.20;;;;;;5092830;28;20200;-43
2023/12/25 04:44:17;;;;;;;0.00;0.00;;;27.20;51.10;;;;;;5092914;28;20194;-43
2023/12/25 04:46:48;;;;;;;0.00;0.00;;;27.20;51.10;;;;;;5092334;28;20194;-44
2023/12/25 04:49:19;;;;;;;0.00;0.00;;;27.20;51.00;;;;;;5092817;28;20210;-42
2023/12/25 04:51:49;;;;;;;0.00;0.00;;;27.20;50.90;;;;;;5093002;28;20205;-43
2023/12/25 04:54:20;;;;;;;0.00;0.00;;;27.10;50.80;;;;;;5093082;28;20190;-43
2023/12/25 04:56:52;;;;;;;0.00;0.00;;;27.10;50.80;;;;;;5092723;28;20198;-47
2023/12/25 04:59:25;;;;;;;0.00;0.00;;;27.10;50.70;;;;;;5092524;28;20198;-47
2023/12/25 05:01:56;;;;;;;0.00;0.00;;;27.10;50.70;;;;;;5092908;28;20190;-46
2023/12/25 05:04:26;;;;;;;0.00;0.00;;;27.10;50.70;;;;;;5092281;28;20276;-46
2023/12/25 05:06:57;;;;;;;0.00;0.00;;;27.00;50.50;;;;;;5092751;28;20214;-47
2023/12/25 05:09:28;;;;;;;0.00;0.00;;;27.00;50.50;;;;;;5092076;28;20198;-43
2023/12/25 05:11:58;;;;;;;0.00;0.00;;;27.00;50.40;;;;;;5091756;28;20186;-46
2023/12/25 05:14:31;;;;;;;0.00;0.00;;;27.00;50.40;;;;;;5092156;28;20198;-46
2023/12/25 05:17:02;;;;;;;0.00;0.00;;;27.00;50.40;;;;;;5092681;28;20592;-49
2023/12/25 05:19:33;;;;;;;0.00;0.00;;;27.00;50.40;;;;;;5092206;28;20500;-47
2023/12/25 05:22:05;;;;;;;0.00;0.00;;;26.90;50.30;;;;;;5092478;28;20230;-46
2023/12/25 05:24:36;;;;;;;0.00;0.00;;;26.90;50.30;;;;;;5092099;28;20664;-46
2023/12/25 05:27:07;;;;;;;0.00;0.00;;;26.90;50.30;;;;;;5092168;28;20210;-47
2023/12/25 05:29:42;;;;;;;0.00;0.00;;;26.90;50.30;;;;;;5092199;28;20190;-47
2023/12/25 05:32:13;;;;;;;0.00;0.00;;;26.90;50.20;;;;;;5091423;28;20185;-45
2023/12/25 05:34:44;;;;;;;0.00;0.00;;;26.90;50.20;;;;;;5091883;28;20221;-44
2023/12/25 05:37:14;;;;;;;0.00;0.00;;;26.90;50.20;;;;;;5092268;28;20201;-44
2023/12/25 05:39:45;;;;;;;0.00;0.00;;;26.80;50.10;;;;;;5092493;28;20294;-44
2023/12/25 05:42:16;;;;;;;0.00;0.00;;;26.80;50.10;;;;;;5091961;28;20197;-46
2023/12/25 05:44:48;;;;;;;0.00;0.00;;;26.80;50.10;;;;;;5091692;28;20214;-45
2023/12/25 05:47:19;;;;;;;0.00;0.00;;;26.80;50.00;;;;;;5092043;28;20232;-44
2023/12/25 05:49:50;;;;;;;0.00;0.00;;;26.80;50.00;;;;;;5091962;28;20650;-51
2023/12/25 05:52:21;;;;;;;0.00;0.00;;;26.80;50.00;;;;;;5091778;28;20190;-47
2023/12/25 05:54:51;;;;;;;0.00;0.00;;;26.80;50.00;;;;;;5091576;28;20581;-45
2023/12/25 05:57:22;;;;;;;0.00;0.00;;;26.70;50.00;;;;;;5091535;28;20202;-48
2023/12/25 05:59:55;;;;;;;0.00;0.00;;;26.70;50.00;;;;;;5091678;28;20540;-49
2023/12/25 06:02:25;;;;;;;0.00;0.00;;;26.70;49.90;;;;;;5091945;28;20194;-47
2023/12/25 06:04:56;;;;;;;0.00;0.00;;;26.70;49.90;;;;;;5091571;28;20239;-48
2023/12/25 06:07:27;;;;;;;0.00;0.00;;;26.70;49.90;;;;;;5091242;28;20213;-45
2023/12/25 06:09:57;;;;;;;0.00;0.00;;;26.70;49.80;;;;;;5091679;28;20200;-45
2023/12/25 06:12:28;;;;;;;0.00;0.00;;;26.60;49.80;;;;;;5091721;28;20194;-48
2023/12/25 06:15:03;;;;;;;0.00;0.00;;;26.60;49.80;;;;;;5091414;28;20225;-47
2023/12/25 06:17:34;;;;;;;0.00;0.00;;;26.60;49.70;;;;;;5091742;28;20233;-45
2023/12/25 06:20:06;;;;;;;0.00;0.00;;;26.60;49.70;;;;;;5091555;28;20251;-46
2023/12/25 06:22:40;;;;;;;0.00;0.00;;;26.60;49.70;;;;;;5091613;28;20247;-49
2023/12/25 06:25:11;;;;;;;0.00;0.00;;;26.60;49.70;;;;;;5092798;28;20217;-45
2023/12/25 06:27:41;;;;;;;0.00;0.00;;;26.60;49.70;;;;;;5095500;28;20224;-46
2023/12/25 06:30:15;;;;;;;0.00;0.00;;;26.50;49.70;;;;;;5095179;28;20542;-46
2023/12/25 06:32:45;;;;;;;0.00;0.00;;;26.50;49.60;;;;;;5095357;28;20569;-47
2023/12/25 06:35:16;;;;;;;0.00;0.00;;;26.50;49.60;;;;;;5095295;28;20233;-46
2023/12/25 06:37:47;;;;;;;0.00;0.00;;;26.50;49.70;;;;;;5095179;28;20557;-47
2023/12/25 06:40:18;;;;;;;0.00;0.00;;;26.50;49.70;;;;;;5095692;28;20204;-46
2023/12/25 06:42:48;;;;;;;0.00;0.00;;;26.50;49.70;;;;;;5095075;28;20201;-46
2023/12/25 06:45:21;;;;;;;0.00;0.00;;;26.50;49.70;;;;;;5094337;28;20214;-45
2023/12/25 06:47:52;;;;;;;0.00;0.00;;;26.40;49.70;;;;;;5095304;28;20233;-46
2023/12/25 06:50:23;;;;;;;0.00;0.00;;;26.40;49.70;;;;;;5095081;28;20247;-48
2023/12/25 06:52:54;;;;;;;0.00;0.00;;;26.40;49.70;;;;;;5095245;28;20213;-46
2023/12/25 06:55:24;;;;;;;0.00;0.00;;;26.40;49.70;;;;;;5095259;28;20221;-50
2023/12/25 06:57:55;;;;;;;0.00;0.00;;;26.40;49.70;;;;;;5095272;28;20190;-47
2023/12/25 07:00:28;;;;;;;0.00;0.00;;;26.40;49.70;;;;;;5095230;28;20680;-47
2023/12/25 07:02:58;;;;;;;0.00;0.00;;;26.30;49.60;;;;;;5094708;28;20657;-47
2023/12/25 07:05:29;;;;;;;0.00;0.00;;;26.30;49.60;;;;;;5094196;28;20218;-44
2023/12/25 07:08:00;;;;;;;0.00;0.00;;;26.30;49.60;;;;;;5094626;28;20226;-46
2023/12/25 07:10:30;;;;;;;0.00;0.00;;;26.30;49.60;;;;;;5095035;28;20465;-47
2023/12/25 07:13:01;;;;;;;0.00;0.00;;;26.30;49.60;;;;;;5094921;28;20219;-45
2023/12/25 07:15:36;;;;;;;0.00;0.00;;;26.30;49.70;;;;;;5094767;28;20762;-44
2023/12/25 07:18:07;;;;;;;0.00;0.00;;;26.30;49.70;;;;;;5094761;28;20208;-46
2023/12/25 07:20:38;;;;;;;0.00;0.00;;;26.20;49.60;;;;;;5094909;28;20194;-46
2023/12/25 07:23:09;;;;;;;0.00;0.00;;;26.20;49.60;;;;;;5094172;28;20213;-44
2023/12/25 07:25:40;;;;;;;0.00;0.00;;;26.20;49.60;;;;;;5094272;28;20214;-46
2023/12/25 07:28:10;;;;;;;0.00;0.00;;;26.20;49.60;;;;;;5094054;28;20222;-46
2023/12/25 07:30:43;;;;;;;0.00;0.00;;;26.20;49.60;;;;;;5094082;28;20194;-47
2023/12/25 07:33:14;;;;;;;0.00;0.00;;;26.20;49.60;;;;;;5094297;28;20198;-48
2023/12/25 07:35:45;;;;;;;0.00;0.00;;;26.20;49.70;;;;;;5093015;28;20222;-46
2023/12/25 07:38:15;;;;;;;0.00;0.00;;;26.20;49.70;;;;;;5094361;28;20194;-49
2023/12/25 07:40:49;;;;;;;0.00;0.00;;;26.20;49.70;;;;;;5094552;28;20682;-44
2023/12/25 07:43:20;;;;;;;0.00;0.00;;;26.10;49.70;;;;;;5094423;28;20194;-45
2023/12/25 07:45:52;;;;;;;0.00;0.00;;;26.10;49.70;;;;;;5094160;28;20704;-45
2023/12/25 07:48:23;;;;;;;0.00;0.00;;;26.10;49.70;;;;;;5093855;28;20222;-44
2023/12/25 07:50:54;;;;;;;0.00;0.00;;;26.10;49.70;;;;;;5093577;28;20194;-46
2023/12/25 07:53:24;;;;;;;0.00;0.00;;;26.10;49.80;;;;;;5093975;28;20198;-44
2023/12/25 07:55:55;;;;;;;0.00;0.00;;;26.10;49.80;;;;;;5093855;28;20229;-48
2023/12/25 07:58:26;;;;;;;0.00;0.00;;;26.10;49.80;;;;;;5093756;28;20198;-44
2023/12/25 08:00:58;;;;;;;0.00;0.00;;;26.10;49.80;;;;;;5094014;28;20194;-45
2023/12/25 08:03:29;;;;;;;0.00;0.00;;;26.10;49.80;;;;;;5093923;28;20194;-46
2023/12/25 08:06:00;;;;;;;0.00;0.00;;;26.10;49.80;;;;;;5093558;28;20221;-44
2023/12/25 08:08:31;;;;;;;0.00;0.00;;;26.10;49.80;;;;;;5093692;28;20307;-44
2023/12/25 08:11:02;;;;;;;0.00;0.00;;;26.10;49.80;;;;;;5094055;28;20221;-43
2023/12/25 08:13:33;;;;;;;0.00;0.00;;;26.10;49.80;;;;;;5093557;28;20182;-45
2023/12/25 08:16:06;;;;;;;0.00;0.00;;;26.10;49.80;;;;;;5093750;28;20214;-44
2023/12/25 08:18:37;;;;;;;0.00;0.00;;;26.00;49.80;;;;;;5093196;28;20198;-47
2023/12/25 08:21:08;;;;;;;0.00;0.00;;;26.00;49.80;;;;;;5092997;28;20202;-46
2023/12/25 08:23:39;;;;;;;0.00;0.00;;;26.00;49.80;;;;;;5093529;28;20191;-44
2023/12/25 08:26:10;;;;;;;0.00;0.00;;;26.00;49.80;;;;;;5093368;28;20217;-43
2023/12/25 08:28:42;;;;;;;0.00;0.00;;;26.00;49.80;;;;;;5093296;28;20241;-46
2023/12/25 08:31:14;;;;;;;0.00;0.00;;;26.00;49.90;;;;;;5093514;28;20190;-46
2023/12/25 08:33:45;;;;;;;0.00;0.00;;;25.90;49.80;;;;;;5093358;28;20577;-47
2023/12/25 08:36:19;;;;;;;0.00;0.00;;;26.00;49.90;;;;;;5093043;28;20213;-45
2023/12/25 08:38:50;;;;;;;0.00;0.00;;;25.90;49.80;;;;;;5093599;28;20217;-47
2023/12/25 08:41:21;;;;;;;0.00;0.00;;;25.90;49.80;;;;;;5092192;28;20190;-47
2023/12/25 08:43:52;;;;;;;0.00;0.00;;;25.90;49.90;;;;;;5093105;28;20217;-47
2023/12/25 08:46:24;;;;;;;0.00;0.00;;;25.90;49.90;;;;;;5093037;28;20225;-46
2023/12/25 08:48:55;;;;;;;0.00;0.00;;;25.90;49.80;;;;;;5091813;28;20225;-47
2023/12/25 08:51:26;;;;;;;0.00;0.00;;;25.90;49.80;;;;;;5092599;28;20198;-47
2023/12/25 08:53:57;;;;;;;0.00;0.00;;;25.90;49.80;;;;;;5091981;28;20646;-47
2023/12/25 08:56:28;;;;;;;0.00;0.00;;;25.90;49.80;;;;;;5092323;28;20218;-44
2023/12/25 08:59:00;;;;;;;0.00;0.00;;;25.80;49.80;;;;;;5093006;28;20198;-42
2023/12/25 09:01:33;;;;;;;0.00;0.00;;;25.80;49.80;;;;;;5092833;28;20198;-43
2023/12/25 09:04:03;;;;;;;0.00;0.00;;;25.80;49.80;;;;;;5092955;28;20194;-44
2023/12/25 09:06:34;;;;;;;0.00;0.00;;;25.80;49.80;;;;;;5092079;28;20198;-44
2023/12/25 09:09:05;;;;;;;0.00;0.00;;;25.80;49.80;;;;;;5072218;28;20222;-46
2023/12/25 09:11:36;;;;;;;0.00;0.00;;;25.80;49.80;;;;;;5072261;28;20187;-46
2023/12/25 09:14:06;;;;;;;0.00;0.00;;;25.70;49.70;;;;;;5072149;28;20260;-44
2023/12/25 09:16:39;;;;;;;0.00;0.00;;;25.70;49.80;;;;;;5072049;28;20219;-45
2023/12/25 09:19:10;;;;;;;0.00;0.00;;;25.70;49.80;;;;;;5072260;28;20202;-49
2023/12/25 09:21:43;;;;;;;0.00;0.00;;;25.70;49.80;;;;;;5071796;28;20198;-47
2023/12/25 09:24:14;;;;;;;0.00;0.00;;;25.70;49.80;;;;;;5072000;28;20429;-43
2023/12/25 09:26:45;;;;;;;0.00;0.00;;;25.60;49.70;;;;;;5071985;28;20195;-47
2023/12/25 09:29:16;;;;;;;0.00;0.00;;;25.70;49.80;;;;;;5071916;28;20222;-48
2023/12/25 09:31:49;;;;;;;0.00;0.00;;;25.60;49.70;;;;;;5071907;28;20567;-46
2023/12/25 09:34:19;;;;;;;0.00;0.00;;;25.60;49.70;;;;;;5088747;28;20198;-45
2023/12/25 09:36:51;;;;;;;0.00;0.00;;;25.60;49.70;;;;;;5091829;28;20190;-46
2023/12/25 09:39:22;;;;;;;0.00;0.00;;;25.60;49.70;;;;;;5092220;28;20198;-42
2023/12/25 09:41:53;;;;;;;0.00;0.00;;;25.60;49.70;;;;;;5091756;28;20197;-44
2023/12/25 09:44:24;;;;;;;0.00;0.00;;;25.60;49.70;;;;;;5091822;28;20675;-44
2023/12/25 09:46:57;;;;;;;0.00;0.00;;;25.50;49.70;;;;;;5091695;28;20206;-46
2023/12/25 09:49:31;;;;;;;0.00;0.00;;;25.50;49.80;;;;;;5091768;28;20224;-49
2023/12/25 09:52:02;;;;;;;0.00;0.00;;;25.50;49.70;;;;;;5091695;28;20194;-46
2023/12/25 09:54:33;;;;;;;0.00;0.00;;;25.40;49.70;;;;;;5091798;28;20195;-42
2023/12/25 09:57:05;;;;;;;0.00;0.00;;;25.40;49.70;;;;;;5091821;28;20585;-44
2023/12/25 09:59:37;;;;;;;0.00;0.00;;;25.40;49.70;;;;;;5091833;28;20653;-47
2023/12/25 10:02:11;;;;;;;0.00;0.00;;;25.40;49.70;;;;;;5091919;28;20198;-47
2023/12/25 10:04:44;;;;;;;0.00;0.00;;;25.40;49.80;;;;;;5091737;28;20217;-49
2023/12/25 10:07:15;;;;;;;0.00;0.00;;;25.30;49.70;;;;;;5091566;28;20198;-49
2023/12/25 10:09:45;;;;;;;0.00;0.00;;;25.30;49.70;;;;;;5091671;28;20259;-47
2023/12/25 10:12:16;;;;;;;0.00;0.00;;;25.30;49.70;;;;;;5091456;28;20205;-47
2023/12/25 10:14:47;;;;;;;0.00;0.00;;;25.30;49.70;;;;;;5091465;28;20220;-51
2023/12/25 10:17:20;;;;;;;0.00;0.00;;;25.30;49.70;;;;;;5091422;28;20650;-50
2023/12/25 10:19:54;;;;;;;0.00;0.00;;;25.30;49.70;;;;;;5090917;28;20195;-47
2023/12/25 10:22:42;;;;;;;0.00;0.00;;;25.30;49.70;;;;;;5071412;28;20213;-46
2023/12/25 10:25:15;;;;;;;0.00;0.00;;;25.20;49.70;;;;;;5071540;28;20221;-47
2023/12/25 10:27:46;;;;;;;0.00;0.00;;;25.20;49.70;;;;;;5071284;28;20205;-50
2023/12/25 10:30:20;;;;;;;0.00;0.00;;;25.20;49.70;;;;;;5070811;28;20226;-47
2023/12/25 10:33:09;;;;;;;0.00;0.00;;;25.10;49.70;;;;;;5071140;28;20198;-48
2023/12/25 10:35:40;;;;;;;0.00;0.00;;;25.10;49.70;;;;;;5071187;28;20698;-47
2023/12/25 10:38:11;;;;;;;0.00;0.00;;;25.10;49.70;;;;;;5084217;28;20700;-48
2023/12/25 10:40:41;;;;;;;0.00;0.00;;;25.10;49.70;;;;;;5091698;28;20205;-52
2023/12/25 10:43:13;;;;;;;0.00;0.00;;;25.10;49.70;;;;;;5091386;28;20205;-50
2023/12/25 10:45:44;;;;;;;0.00;0.00;;;25.10;49.80;;;;;;5091002;28;20210;-49
2023/12/25 10:48:17;;;;;;;0.00;0.00;;;25.00;49.70;;;;;;5091309;28;20238;-48
2023/12/25 10:50:49;;;;;;;0.00;0.00;;;25.00;49.80;;;;;;5090950;28;20733;-49
2023/12/25 10:53:20;;;;;;;0.00;0.00;;;25.00;49.70;;;;;;5091331;28;20488;-50
2023/12/25 10:55:52;;;;;;;0.00;0.00;;;25.00;49.80;;;;;;5091660;28;20221;-50
2023/12/25 10:58:23;;;;;;;0.00;0.00;;;24.90;49.70;;;;;;5091574;28;20194;-47
2023/12/25 11:00:59;;;;;;;0.00;0.00;;;24.90;49.70;;;;;;5091272;28;20672;-48
2023/12/25 11:03:33;;;;;;;0.00;0.00;;;24.90;49.70;;;;;;5090922;28;20326;-50
2023/12/25 11:06:06;;;;;;;0.00;0.00;;;24.90;49.70;;;;;;5091034;28;20253;-51
2023/12/25 11:08:37;;;;;;;0.00;0.00;;;24.90;49.70;;;;;;5090822;28;20205;-51
2023/12/25 11:11:07;;;;;;;0.00;0.00;;;24.90;49.70;;;;;;5091771;28;20197;-50
2023/12/25 11:13:40;;;;;;;0.00;0.00;;;24.90;49.80;;;;;;5094762;28;20190;-50
2023/12/25 11:16:11;;;;;;;0.00;0.00;;;24.80;49.70;;;;;;5094115;28;20209;-49
2023/12/25 11:18:44;;;;;;;0.00;0.00;;;24.80;49.80;;;;;;5094349;28;20202;-49
2023/12/25 11:21:18;;;;;;;0.00;0.00;;;24.80;49.70;;;;;;5094304;28;20194;-48
2023/12/25 11:23:51;;;;;;;0.00;0.00;;;24.80;49.80;;;;;;5094461;28;20197;-50
2023/12/25 11:26:27;;;;;;;0.00;0.00;;;24.70;49.70;;;;;;5094113;28;20706;-46
2023/12/25 11:29:02;;;;;;;0.00;0.00;;;24.70;49.80;;;;;;5074615;28;20218;-53
2023/12/25 11:31:43;;;;;;;0.00;0.00;;;24.70;49.80;;;;;;5074344;28;20285;-50
2023/12/25 11:34:30;;;;;;;0.00;0.00;;;24.70;49.80;;;;;;5074317;28;20206;-46
2023/12/25 11:37:03;;;;;;;0.00;0.00;;;24.70;49.90;;;;;;5077266;28;20559;-47
2023/12/25 11:39:35;;;;;;;0.00;0.00;;;24.70;49.80;;;;;;5094904;28;20201;-49
2023/12/25 11:42:06;;;;;;;0.00;0.00;;;24.60;49.80;;;;;;5094355;28;20198;-46
2023/12/25 11:44:37;;;;;;;0.00;0.00;;;24.60;49.80;;;;;;5094269;28;20225;-47
2023/12/25 11:47:08;;;;;;;0.00;0.00;;;24.60;49.80;;;;;;5093476;28;20206;-49
2023/12/25 11:49:42;;;;;;;0.00;0.00;;;24.60;49.80;;;;;;5094331;28;20222;-48
2023/12/25 11:52:14;;;;;;;0.00;0.00;;;24.50;49.80;;;;;;5094111;28;20202;-51
2023/12/25 11:54:45;;;;;;;0.00;0.00;;;24.50;49.80;;;;;;5093441;28;20218;-50
2023/12/25 11:57:22;;;;;;;0.00;0.00;;;24.50;49.80;;;;;;5093595;28;20198;-51
2023/12/25 11:59:52;;;;;;;0.00;0.00;;;24.50;49.80;;;;;;5093859;28;20284;-50
2023/12/25 12:02:23;;;;;;;0.00;0.00;;;24.50;49.80;;;;;;5093671;28;20665;-51
2023/12/25 12:04:56;;;;;;;0.00;0.00;;;24.50;49.80;;;;;;5093117;28;20213;-49
2023/12/25 12:07:27;;;;;;;0.00;0.00;;;24.40;49.80;;;;;;5093347;28;20198;-50
2023/12/25 12:09:57;;;;;;;0.00;0.00;;;24.40;49.90;;;;;;5093790;28;20598;-46
2023/12/25 12:12:28;;;;;;;0.00;0.00;;;24.40;49.90;;;;;;5093819;28;20201;-48
2023/12/25 12:14:59;;;;;;;0.00;0.00;;;24.40;49.90;;;;;;5093432;28;20218;-47
2023/12/25 12:17:30;;;;;;;0.00;0.00;;;24.30;49.90;;;;;;5093627;28;20194;-48
2023/12/25 12:20:03;;;;;;;0.00;0.00;;;24.30;49.80;;;;;;5093024;28;20623;-46
2023/12/25 12:22:35;;;;;;;0.00;0.00;;;24.30;49.90;;;;;;5092712;28;20224;-50
2023/12/25 12:25:18;;;;;;;0.03;0.03;;;24.30;49.90;;;;;;5092852;28;20214;-47
2023/12/25 12:27:49;;;;;;;0.00;0.00;;;24.30;49.90;;;;;;5092956;28;20243;-49
2023/12/25 12:30:20;;;;;;;0.10;0.10;;;24.20;49.80;;;;;;5093190;28;20228;-50
2023/12/25 12:32:52;;;;;;;0.00;0.00;;;24.20;49.90;;;;;;5093400;28;20190;-50
2023/12/25 12:35:25;;;;;;;0.00;0.00;;;24.20;49.90;;;;;;5093128;28;20226;-50
2023/12/25 12:37:57;;;;;;;0.00;0.00;;;24.20;49.90;;;;;;5093309;28;20543;-47
2023/12/25 12:40:28;;;;;;;0.00;0.00;;;24.20;49.90;;;;;;5093691;28;20288;-48
2023/12/25 12:42:59;;;;;;;0.00;0.00;;;24.20;49.90;;;;;;5093054;28;20190;-48
2023/12/25 12:45:30;;;;;;;0.00;0.00;;;24.20;49.90;;;;;;5092119;28;20213;-47
2023/12/25 12:48:01;;;;;;;0.05;0.05;;;24.20;49.90;;;;;;5093022;28;20194;-51
2023/12/25 12:50:34;;;;;;;0.00;0.00;;;24.10;49.90;;;;;;5092867;28;20608;-50
2023/12/25 12:53:05;;;;;;;0.00;0.00;;;24.10;49.90;;;;;;5093057;28;20198;-47
2023/12/25 12:55:36;;;;;;;0.00;0.00;;;24.10;49.90;;;;;;5092481;28;20214;-48
2023/12/25 12:58:07;;;;;;;0.00;0.00;;;24.00;49.90;;;;;;5092679;28;20190;-46
2023/12/25 13:00:38;;;;;;;0.00;0.00;;;24.00;49.90;;;;;;5093074;28;20269;-48
2023/12/25 13:03:09;;;;;;;0.00;0.00;;;24.00;49.90;;;;;;5092777;28;20401;-48
2023/12/25 13:05:41;;;;;;;0.00;0.00;;;24.00;49.90;;;;;;5092592;28;20218;-51
2023/12/25 13:08:12;;;;;;;0.00;0.00;;;24.00;49.90;;;;;;5092589;28;20202;-47
2023/12/25 13:10:43;;;;;;;0.00;0.00;;;24.00;49.90;;;;;;5092396;28;20233;-45